createdAt,value
2018-03-06T00:00:19.083Z,97891.89
2018-03-06T00:02:45.352Z,97892.38
2018-03-06T00:05:11.604Z,97883.02
2018-03-06T00:07:37.920Z,97883.02
2018-03-06T00:10:04.252Z,97879.55
2018-03-06T00:12:30.616Z,97879.39
2018-03-06T00:14:56.918Z,97876.30
2018-03-06T00:17:23.220Z,97855.72
2018-03-06T00:19:49.484Z,97875.65
2018-03-06T00:22:15.800Z,97876.80
2018-03-06T00:24:42.133Z,97867.09
2018-03-06T00:27:08.442Z,97873.56
2018-03-06T00:29:35.479Z,97867.87
2018-03-06T00:32:02.564Z,97873.45
2018-03-06T00:34:28.869Z,97866.05
2018-03-06T00:36:55.097Z,97869.52
2018-03-06T00:39:21.387Z,97870.52
2018-03-06T00:41:47.697Z,97866.79
2018-03-06T00:44:13.978Z,97863.89
2018-03-06T00:46:40.960Z,97860.59
2018-03-06T00:49:07.262Z,97867.05
2018-03-06T00:51:34.291Z,97853.07
2018-03-06T00:54:00.537Z,97857.48
2018-03-06T00:56:27.596Z,97853.86
2018-03-06T00:58:54.651Z,97855.26
2018-03-06T01:01:20.946Z,97850.97
2018-03-06T01:03:47.219Z,97853.91
2018-03-06T01:06:13.532Z,97848.28
2018-03-06T01:08:39.788Z,97845.91
2018-03-06T01:11:06.016Z,97840.98
2018-03-06T01:13:32.276Z,97837.05
2018-03-06T01:15:58.534Z,97835.75
2018-03-06T01:18:25.555Z,97834.22
2018-03-06T01:20:51.821Z,97829.52
2018-03-06T01:23:18.813Z,97832.92
2018-03-06T01:25:45.083Z,97827.48
2018-03-06T01:28:12.089Z,97829.52
2018-03-06T01:30:38.366Z,97824.70
2018-03-06T01:33:05.379Z,97815.19
2018-03-06T01:35:38.619Z,97812.35
2018-03-06T01:38:04.900Z,97808.14
2018-03-06T01:40:31.212Z,97813.53
2018-03-06T01:42:57.486Z,97813.78
2018-03-06T01:45:23.724Z,97817.88
2018-03-06T01:47:50.785Z,97811.36
2018-03-06T01:50:17.786Z,97804.48
2018-03-06T01:52:44.064Z,97814.20
2018-03-06T01:55:10.372Z,97809.80
2018-03-06T01:57:37.420Z,97808.61
2018-03-06T02:00:04.419Z,97799.41
2018-03-06T02:02:30.774Z,97796.97
2018-03-06T02:04:57.051Z,97793.09
2018-03-06T02:07:24.083Z,97794.50
2018-03-06T02:09:51.147Z,97791.03
2018-03-06T02:12:17.452Z,97785.50
2018-03-06T02:14:43.785Z,97775.27
2018-03-06T02:17:10.017Z,97780.80
2018-03-06T02:19:37.060Z,97782.56
2018-03-06T02:22:03.392Z,97772.83
2018-03-06T02:24:29.712Z,97778.16
2018-03-06T02:26:56.020Z,97773.40
2018-03-06T02:29:22.324Z,97771.00
2018-03-06T02:31:48.614Z,97768.16
2018-03-06T02:34:14.872Z,97759.54
2018-03-06T02:36:41.179Z,97753.79
2018-03-06T02:39:08.250Z,97753.02
2018-03-06T02:41:34.561Z,97742.61
2018-03-06T02:44:01.625Z,97744.73
2018-03-06T02:46:28.642Z,97745.88
2018-03-06T02:48:55.001Z,97748.48
2018-03-06T02:51:22.012Z,97742.79
2018-03-06T02:53:50.097Z,97741.91
2018-03-06T02:56:16.360Z,97737.37
2018-03-06T02:58:42.607Z,97736.14
2018-03-06T03:01:08.928Z,97732.73
2018-03-06T03:03:35.172Z,97732.09
2018-03-06T03:06:01.448Z,97725.49
2018-03-06T03:08:27.688Z,97726.21
2018-03-06T03:10:54.698Z,97719.96
2018-03-06T03:13:20.948Z,97718.92
2018-03-06T03:15:47.200Z,97718.09
2018-03-06T03:18:14.200Z,97717.47
2018-03-06T03:20:40.526Z,97716.70
2018-03-06T03:23:06.773Z,97710.75
2018-03-06T03:25:33.044Z,97711.47
2018-03-06T03:27:59.317Z,97703.20
2018-03-06T03:30:25.585Z,97704.23
2018-03-06T03:32:51.822Z,97706.55
2018-03-06T03:35:18.861Z,97702.12
2018-03-06T03:37:45.165Z,97702.46
2018-03-06T03:40:11.431Z,97706.35
2018-03-06T03:42:38.447Z,97701.60
2018-03-06T03:45:04.719Z,97698.66
2018-03-06T03:47:31.763Z,97702.27
2018-03-06T03:49:58.752Z,97705.11
2018-03-06T03:52:25.008Z,97699.42
2018-03-06T03:54:51.272Z,97687.97
2018-03-06T03:57:18.276Z,97690.91
2018-03-06T03:59:44.516Z,97687.54
2018-03-06T04:02:10.778Z,97683.39
2018-03-06T04:04:37.784Z,97683.75
2018-03-06T04:07:04.045Z,97681.03
2018-03-06T04:09:31.044Z,97688.61
2018-03-06T04:12:04.154Z,97691.50
2018-03-06T04:14:30.437Z,97691.13
2018-03-06T04:16:56.702Z,97690.58
2018-03-06T04:19:23.040Z,97692.41
2018-03-06T04:21:49.440Z,97690.41
2018-03-06T04:24:15.731Z,97691.38
2018-03-06T04:26:42.717Z,97688.99
2018-03-06T04:29:08.975Z,97685.06
2018-03-06T04:31:35.232Z,97685.08
2018-03-06T04:34:01.652Z,97686.83
2018-03-06T04:36:27.964Z,97676.52
2018-03-06T04:38:54.304Z,97678.22
2018-03-06T04:41:20.564Z,97677.55
2018-03-06T04:43:47.647Z,97675.24
2018-03-06T04:46:14.001Z,97672.64
2018-03-06T04:48:40.261Z,97667.85
2018-03-06T04:51:06.648Z,97670.59
2018-03-06T04:53:32.906Z,97675.53
2018-03-06T04:55:59.196Z,97679.11
2018-03-06T04:58:25.459Z,97677.28
2018-03-06T05:00:51.755Z,97679.38
2018-03-06T05:03:18.117Z,97676.70
2018-03-06T05:05:45.199Z,97677.20
2018-03-06T05:08:12.249Z,97676.23
2018-03-06T05:10:39.270Z,97669.67
2018-03-06T05:13:05.548Z,97672.72
2018-03-06T05:15:31.810Z,97672.29
2018-03-06T05:17:58.084Z,97678.81
2018-03-06T05:20:25.086Z,97674.73
2018-03-06T05:22:51.351Z,97670.64
2018-03-06T05:25:17.644Z,97671.64
2018-03-06T05:27:43.896Z,97649.55
2018-03-06T05:30:10.190Z,97665.55
2018-03-06T05:32:36.457Z,97660.46
2018-03-06T05:35:02.727Z,97661.45
2018-03-06T05:37:29.708Z,97656.22
2018-03-06T05:39:55.982Z,97648.36
2018-03-06T05:42:22.984Z,97648.69
2018-03-06T05:44:49.257Z,97650.78
2018-03-06T05:47:16.312Z,97654.01
2018-03-06T05:49:42.579Z,97649.68
2018-03-06T05:52:08.830Z,97655.16
2018-03-06T05:54:35.132Z,97652.43
2018-03-06T05:57:01.397Z,97653.87
2018-03-06T05:59:28.425Z,97652.63
2018-03-06T06:01:54.692Z,97646.03
2018-03-06T06:04:20.981Z,97644.09
2018-03-06T06:06:47.247Z,97645.75
2018-03-06T06:09:13.519Z,97645.42
2018-03-06T06:11:39.790Z,97650.16
2018-03-06T06:14:06.083Z,97645.41
2018-03-06T06:16:33.132Z,97642.47
2018-03-06T06:19:00.180Z,97637.48
2018-03-06T06:21:27.204Z,97635.78
2018-03-06T06:23:53.486Z,97642.09
2018-03-06T06:26:19.756Z,97639.36
2018-03-06T06:28:46.062Z,97640.56
2018-03-06T06:31:12.340Z,97635.77
2018-03-06T06:33:39.370Z,97635.64
2018-03-06T06:36:05.647Z,97641.52
2018-03-06T06:38:31.955Z,97645.63
2018-03-06T06:40:59.024Z,97644.57
2018-03-06T06:43:25.381Z,97644.34
2018-03-06T06:45:51.689Z,97647.45
2018-03-06T06:48:17.966Z,97641.56
2018-03-06T06:50:44.235Z,97629.81
2018-03-06T06:53:11.232Z,97636.50
2018-03-06T06:55:37.544Z,97639.31
2018-03-06T06:58:03.819Z,97631.94
2018-03-06T07:00:30.107Z,97626.42
2018-03-06T07:02:56.400Z,97632.59
2018-03-06T07:05:23.397Z,97633.75
2018-03-06T07:07:49.656Z,97626.91
2018-03-06T07:10:15.943Z,97629.77
2018-03-06T07:12:42.912Z,97631.49
2018-03-06T07:15:09.158Z,97631.95
2018-03-06T07:17:35.463Z,97635.55
2018-03-06T07:20:01.725Z,97631.30
2018-03-06T07:22:28.750Z,97638.68
2018-03-06T07:24:55.005Z,97632.75
2018-03-06T07:27:22.020Z,97629.73
2018-03-06T07:29:48.295Z,97631.52
2018-03-06T07:32:15.308Z,97630.83
2018-03-06T07:34:41.593Z,97625.81
2018-03-06T07:37:07.861Z,97633.81
2018-03-06T07:39:34.142Z,97633.09
2018-03-06T07:42:00.415Z,97633.81
2018-03-06T07:44:26.684Z,97640.52
2018-03-06T07:46:53.690Z,97637.65
2018-03-06T07:49:19.933Z,97639.58
2018-03-06T07:51:46.205Z,97634.27
2018-03-06T07:54:12.479Z,97636.36
2018-03-06T07:56:38.777Z,97634.89
2018-03-06T07:59:05.048Z,97632.67
2018-03-06T08:01:31.345Z,97632.55
2018-03-06T08:03:57.663Z,97630.73
2018-03-06T08:06:23.939Z,97630.03
2018-03-06T08:08:50.250Z,97635.02
2018-03-06T08:11:16.476Z,97624.67
2018-03-06T08:13:42.772Z,97616.33
2018-03-06T08:16:09.020Z,97622.14
2018-03-06T08:18:35.314Z,97618.73
2018-03-06T08:21:02.304Z,97621.84
2018-03-06T08:23:28.656Z,97627.36
2018-03-06T08:25:54.918Z,97626.06
2018-03-06T08:28:21.197Z,97621.38
2018-03-06T08:30:47.682Z,97615.20
2018-03-06T08:33:14.693Z,97619.31
2018-03-06T08:35:40.972Z,97613.52
2018-03-06T08:38:07.969Z,97619.65
2018-03-06T08:40:35.015Z,97623.29
2018-03-06T08:43:01.318Z,97616.98
2018-03-06T08:45:27.569Z,97615.85
2018-03-06T08:47:53.841Z,97619.55
2018-03-06T08:50:20.103Z,97615.62
2018-03-06T08:52:46.410Z,97616.53
2018-03-06T08:55:13.417Z,97620.73
2018-03-06T08:57:39.699Z,97609.95
2018-03-06T09:00:05.981Z,97605.02
2018-03-06T09:02:32.275Z,97613.09
2018-03-06T09:04:58.555Z,97611.11
2018-03-06T09:07:24.823Z,97611.58
2018-03-06T09:09:51.131Z,97605.41
2018-03-06T09:12:17.397Z,97606.27
2018-03-06T09:14:43.698Z,97602.76
2018-03-06T09:17:09.961Z,97604.41
2018-03-06T09:19:36.224Z,97607.57
2018-03-06T09:22:02.484Z,97601.22
2018-03-06T09:24:28.865Z,97609.91
2018-03-06T09:26:55.105Z,97602.00
2018-03-06T09:29:21.374Z,97601.81
2018-03-06T09:31:47.639Z,97602.63
2018-03-06T09:34:13.951Z,97610.14
2018-03-06T09:36:40.981Z,97608.33
2018-03-06T09:39:08.017Z,97606.06
2018-03-06T09:41:34.304Z,97604.28
2018-03-06T09:44:00.615Z,97610.55
2018-03-06T09:46:26.908Z,97612.38
2018-03-06T09:48:53.175Z,97612.50
2018-03-06T09:51:19.433Z,97608.84
2018-03-06T09:53:45.724Z,97607.84
2018-03-06T09:56:12.718Z,97612.34
2018-03-06T09:58:39.051Z,97601.80
2018-03-06T10:01:05.754Z,97604.59
2018-03-06T10:03:32.044Z,97602.23
2018-03-06T10:05:58.291Z,97606.31
2018-03-06T10:08:25.344Z,97606.61
2018-03-06T10:10:51.633Z,97602.78
2018-03-06T10:13:17.904Z,97600.27
2018-03-06T10:15:44.946Z,97595.92
2018-03-06T10:18:11.980Z,97600.36
2018-03-06T10:20:38.220Z,97598.27
2018-03-06T10:23:04.498Z,97596.23
2018-03-06T10:25:30.865Z,97595.83
2018-03-06T10:27:57.129Z,97586.55
2018-03-06T10:30:24.138Z,97593.72
2018-03-06T10:32:50.402Z,97583.48
2018-03-06T10:35:17.436Z,97589.27
2018-03-06T10:37:43.750Z,97584.39
2018-03-06T10:40:10.075Z,97578.22
2018-03-06T10:42:36.346Z,97573.23
2018-03-06T10:45:03.358Z,97573.77
2018-03-06T10:47:29.655Z,97569.67
2018-03-06T10:49:55.907Z,97563.92
2018-03-06T10:52:22.183Z,97567.83
2018-03-06T10:54:49.211Z,97563.55
2018-03-06T10:57:15.534Z,97561.03
2018-03-06T10:59:41.806Z,97558.91
2018-03-06T11:02:14.047Z,97555.53
2018-03-06T11:04:40.309Z,97557.88
2018-03-06T11:07:06.625Z,97559.70
2018-03-06T11:09:32.966Z,97548.45
2018-03-06T11:11:59.240Z,97553.23
2018-03-06T11:14:25.686Z,97546.72
2018-03-06T11:16:51.939Z,97548.09
2018-03-06T11:19:18.943Z,97551.85
2018-03-06T11:21:45.233Z,97547.14
2018-03-06T11:24:11.554Z,97550.62
2018-03-06T11:26:38.549Z,97546.80
2018-03-06T11:29:04.822Z,97540.11
2018-03-06T11:31:31.851Z,97544.69
2018-03-06T11:33:58.179Z,97546.52
2018-03-06T11:36:24.620Z,97545.00
2018-03-06T11:38:50.884Z,97537.05
2018-03-06T11:41:17.169Z,97533.67
2018-03-06T11:43:43.474Z,97532.79
2018-03-06T11:46:09.777Z,97522.00
2018-03-06T11:48:36.043Z,97527.31
2018-03-06T11:51:02.297Z,97523.54
2018-03-06T11:53:28.582Z,97519.06
2018-03-06T11:55:54.953Z,97522.99
2018-03-06T11:58:21.252Z,97521.39
2018-03-06T12:00:47.854Z,97517.13
2018-03-06T12:03:14.185Z,97511.06
2018-03-06T12:05:41.166Z,97515.31
2018-03-06T12:08:07.417Z,97511.73
2018-03-06T12:10:33.733Z,97510.39
2018-03-06T12:12:59.996Z,97510.83
2018-03-06T12:15:26.282Z,97506.23
2018-03-06T12:17:52.539Z,97506.72
2018-03-06T12:20:18.806Z,97507.47
2018-03-06T12:22:45.849Z,97505.41
2018-03-06T12:25:12.874Z,97502.32
2018-03-06T12:27:39.100Z,97496.48
2018-03-06T12:30:05.366Z,97497.59
2018-03-06T12:32:32.345Z,97497.27
2018-03-06T12:34:58.587Z,97494.94
2018-03-06T12:37:24.883Z,97491.13
2018-03-06T12:39:51.174Z,97486.95
2018-03-06T12:42:17.429Z,97489.17
2018-03-06T12:44:44.421Z,97491.55
2018-03-06T12:47:10.784Z,97491.13
2018-03-06T12:49:37.072Z,97484.26
2018-03-06T12:52:03.324Z,97478.64
2018-03-06T12:54:30.314Z,97480.83
2018-03-06T12:56:57.302Z,97474.22
2018-03-06T12:59:23.580Z,97471.87
2018-03-06T13:01:50.590Z,97473.09
2018-03-06T13:04:17.569Z,97471.28
2018-03-06T13:06:43.840Z,97464.61
2018-03-06T13:09:10.117Z,97468.19
2018-03-06T13:11:36.417Z,97464.84
2018-03-06T13:14:02.747Z,97465.33
2018-03-06T13:16:29.008Z,97463.59
2018-03-06T13:18:55.296Z,97462.61
2018-03-06T13:21:21.581Z,97457.14
2018-03-06T13:23:48.592Z,97464.02
2018-03-06T13:26:14.842Z,97462.49
2018-03-06T13:28:41.083Z,97459.44
2018-03-06T13:31:07.334Z,97457.42
2018-03-06T13:33:34.323Z,97454.30
2018-03-06T13:36:00.573Z,97457.63
2018-03-06T13:38:26.888Z,97465.18
2018-03-06T13:40:53.142Z,97464.36
2018-03-06T13:43:19.414Z,97467.59
2018-03-06T13:45:45.675Z,97465.89
2018-03-06T13:48:11.946Z,97466.71
2018-03-06T13:50:38.988Z,97461.53
2018-03-06T13:53:06.008Z,97454.86
2018-03-06T13:55:32.296Z,97458.47
2018-03-06T13:57:58.542Z,97455.52
2018-03-06T14:00:24.812Z,97461.15
2018-03-06T14:02:51.049Z,97460.40
2018-03-06T14:05:17.307Z,97454.18
2018-03-06T14:07:43.541Z,97455.39
2018-03-06T14:10:09.824Z,97455.23
2018-03-06T14:12:36.106Z,97457.76
2018-03-06T14:15:02.426Z,97460.89
2018-03-06T14:17:28.699Z,97456.84
2018-03-06T14:19:54.995Z,97453.69
2018-03-06T14:22:21.272Z,97453.13
2018-03-06T14:24:47.519Z,97458.36
2018-03-06T14:27:13.777Z,97450.20
2018-03-06T14:29:40.052Z,97449.95
2018-03-06T14:32:06.329Z,97451.38
2018-03-06T14:34:33.360Z,97452.20
2018-03-06T14:37:01.044Z,97452.18
2018-03-06T14:39:27.343Z,97448.98
2018-03-06T14:41:53.718Z,97454.87
2018-03-06T14:44:20.034Z,97449.32
2018-03-06T14:46:47.027Z,97450.27
2018-03-06T14:49:13.322Z,97454.23
2018-03-06T14:51:39.647Z,97442.72
2018-03-06T14:54:05.931Z,97439.97
2018-03-06T14:56:32.244Z,97430.86
2018-03-06T14:58:58.588Z,97442.03
2018-03-06T15:01:24.862Z,97442.11
2018-03-06T15:03:51.996Z,97441.56
2018-03-06T15:06:19.067Z,97443.34
2018-03-06T15:08:45.411Z,97440.75
2018-03-06T15:11:11.721Z,97436.83
2018-03-06T15:13:38.795Z,97428.97
2018-03-06T15:16:05.163Z,97436.97
2018-03-06T15:18:31.477Z,97420.66
2018-03-06T15:21:02.610Z,97425.11
2018-03-06T15:23:28.907Z,97424.86
2018-03-06T15:25:55.955Z,97426.89
2018-03-06T15:28:23.001Z,97429.23
2018-03-06T15:30:58.554Z,97428.41
2018-03-06T15:33:24.981Z,97424.36
2018-03-06T15:35:52.029Z,97424.42
2018-03-06T15:38:32.942Z,97433.13
2018-03-06T15:40:59.235Z,97424.42
2018-03-06T15:43:26.323Z,97430.48
2018-03-06T15:45:52.748Z,97430.43
2018-03-06T15:48:19.102Z,97439.15
2018-03-06T15:50:45.403Z,97441.52
2018-03-06T15:53:11.743Z,97434.28
2018-03-06T15:55:38.072Z,97432.37
2018-03-06T15:58:04.367Z,97436.05
2018-03-06T16:00:31.452Z,97438.34
2018-03-06T16:02:57.776Z,97434.38
2018-03-06T16:05:24.134Z,97437.44
2018-03-06T16:07:50.456Z,97441.75
2018-03-06T16:10:17.866Z,97437.23
2018-03-06T16:12:44.903Z,97438.91
2018-03-06T16:15:11.195Z,97441.45
2018-03-06T16:17:37.525Z,97442.13
2018-03-06T16:20:03.809Z,97437.30
2018-03-06T16:22:30.820Z,97438.91
2018-03-06T16:24:57.253Z,97444.17
2018-03-06T16:27:24.427Z,97444.52
2018-03-06T16:29:50.709Z,97447.08
2018-03-06T16:32:17.041Z,97452.30
2018-03-06T16:34:43.308Z,97452.34
2018-03-06T16:37:09.667Z,97452.59
2018-03-06T16:39:36.805Z,97454.76
2018-03-06T16:42:03.845Z,97458.23
2018-03-06T16:44:30.177Z,97453.39
2018-03-06T16:46:56.438Z,97452.58
2018-03-06T16:49:22.776Z,97455.15
2018-03-06T16:51:49.036Z,97455.31
2018-03-06T16:54:16.170Z,97446.48
2018-03-06T16:56:57.515Z,97448.49
2018-03-06T16:59:25.944Z,97460.95
2018-03-06T17:01:52.250Z,97457.05
2018-03-06T17:04:18.561Z,97457.42
2018-03-06T17:06:45.661Z,97461.84
2018-03-06T17:09:12.707Z,97456.34
2018-03-06T17:11:38.960Z,97461.73
2018-03-06T17:14:05.205Z,97458.44
2018-03-06T17:16:32.237Z,97460.04
2018-03-06T17:18:58.515Z,97459.77
2018-03-06T17:21:24.857Z,97460.14
2018-03-06T17:23:51.206Z,97450.23
2018-03-06T17:26:17.504Z,97449.84
2018-03-06T17:28:43.847Z,97456.00
2018-03-06T17:31:10.189Z,97456.16
2018-03-06T17:33:36.471Z,97453.19
2018-03-06T17:36:03.550Z,97457.20
2018-03-06T17:38:29.907Z,97456.43
2018-03-06T17:40:56.192Z,97454.39
2018-03-06T17:43:23.237Z,97458.69
2018-03-06T17:45:50.266Z,97453.08
2018-03-06T17:48:16.641Z,97458.98
2018-03-06T17:50:42.985Z,97452.68
2018-03-06T17:53:09.257Z,97453.73
2018-03-06T17:55:35.516Z,97449.95
2018-03-06T17:58:02.568Z,97461.55
2018-03-06T18:00:28.883Z,97459.28
2018-03-06T18:02:55.904Z,97461.01
2018-03-06T18:05:22.233Z,97459.30
2018-03-06T18:07:48.515Z,97457.36
2018-03-06T18:10:14.919Z,97455.58
2018-03-06T18:12:41.222Z,97456.00
2018-03-06T18:15:09.119Z,97459.09
2018-03-06T18:17:36.290Z,97455.87
2018-03-06T18:20:02.530Z,97455.06
2018-03-06T18:22:28.837Z,97449.05
2018-03-06T18:24:56.936Z,97456.95
2018-03-06T18:27:23.214Z,97457.91
2018-03-06T18:29:49.632Z,97448.55
2018-03-06T18:32:15.912Z,97448.64
2018-03-06T18:34:42.938Z,97448.98
2018-03-06T18:37:09.317Z,97441.59
2018-03-06T18:39:41.489Z,97443.23
2018-03-06T18:42:20.482Z,97452.04
2018-03-06T18:44:46.813Z,97451.09
2018-03-06T18:47:13.830Z,97442.20
2018-03-06T18:50:05.341Z,97448.06
2018-03-06T18:52:32.539Z,97448.14
2018-03-06T18:54:58.844Z,97445.73
2018-03-06T18:57:25.078Z,97447.47
2018-03-06T19:03:11.134Z,97443.12
2018-03-06T19:09:00.084Z,97440.87
2018-03-06T19:11:27.119Z,97434.50
2018-03-06T19:13:53.427Z,97433.39
2018-03-06T19:16:19.693Z,97428.00
2018-03-06T19:18:46.716Z,97435.08
2018-03-06T19:21:13.183Z,97433.56
2018-03-06T19:23:40.261Z,97432.05
2018-03-06T19:26:07.511Z,97429.05
2018-03-06T19:28:34.278Z,97435.22
2018-03-06T19:31:00.581Z,97424.39
2018-03-06T19:33:26.912Z,97422.96
2018-03-06T19:35:53.306Z,97426.06
2018-03-06T19:38:19.598Z,97424.66
2018-03-06T19:40:45.993Z,97422.45
2018-03-06T19:43:14.020Z,97425.47
2018-03-06T19:45:40.350Z,97423.13
2018-03-06T19:48:06.687Z,97423.81
2018-03-06T19:50:33.063Z,97428.72
2018-03-06T19:52:59.471Z,97423.16
2018-03-06T19:55:27.467Z,97418.59
2018-03-06T19:57:53.849Z,97418.53
2018-03-06T20:00:20.309Z,97427.48
2018-03-06T20:02:47.358Z,97425.43
2018-03-06T20:05:14.377Z,97425.06
2018-03-06T20:07:40.777Z,97431.05
2018-03-06T20:10:07.142Z,97428.48
2018-03-06T20:12:33.576Z,97423.16
2018-03-06T20:15:06.117Z,97420.24
2018-03-06T20:17:32.399Z,97419.13
2018-03-06T20:19:58.755Z,97419.63
2018-03-06T20:22:25.833Z,97414.72
2018-03-06T20:24:58.242Z,97426.56
2018-03-06T20:27:24.662Z,97423.18
2018-03-06T20:29:51.042Z,97418.77
2018-03-06T20:32:24.149Z,97420.00
2018-03-06T20:34:50.498Z,97418.30
2018-03-06T20:37:16.744Z,97422.75
2018-03-06T20:39:49.314Z,97417.13
2018-03-06T20:42:15.675Z,97417.95
2018-03-06T20:44:42.780Z,97421.14
2018-03-06T20:47:15.162Z,97416.77
2018-03-06T20:49:41.545Z,97420.48
2018-03-06T20:52:07.860Z,97416.06
2018-03-06T20:54:40.279Z,97421.86
2018-03-06T20:57:06.677Z,97416.94
2018-03-06T20:59:32.980Z,97417.82
2018-03-06T21:01:59.322Z,97413.23
2018-03-06T21:04:25.696Z,97413.05
2018-03-06T21:06:52.736Z,97414.21
2018-03-06T21:09:19.774Z,97399.58
2018-03-06T21:11:46.795Z,97408.29
2018-03-06T21:14:13.797Z,97405.33
2018-03-06T21:16:40.088Z,97404.93
2018-03-06T21:19:06.355Z,97402.39
2018-03-06T21:21:32.668Z,97402.72
2018-03-06T21:23:58.976Z,97402.23
2018-03-06T21:26:25.288Z,97399.47
2018-03-06T21:28:52.402Z,97402.23
2018-03-06T21:31:18.748Z,97399.48
2018-03-06T21:33:45.040Z,97398.55
2018-03-06T21:36:12.065Z,97394.45
2018-03-06T21:38:38.470Z,97395.34
2018-03-06T21:41:04.872Z,97392.61
2018-03-06T21:43:31.238Z,97382.02
2018-03-06T21:45:57.583Z,97393.75
2018-03-06T21:48:23.965Z,97387.56
2018-03-06T21:50:50.251Z,97384.78
2018-03-06T21:53:16.630Z,97384.03
2018-03-06T21:55:42.999Z,97389.63
2018-03-06T21:58:09.270Z,97380.70
2018-03-06T22:00:36.276Z,97389.04
2018-03-06T22:03:02.559Z,97382.08
2018-03-06T22:05:29.589Z,97379.22
2018-03-06T22:07:55.954Z,97387.61
2018-03-06T22:10:22.296Z,97394.14
2018-03-06T22:12:48.560Z,97387.00
2018-03-06T22:15:14.836Z,97389.67
2018-03-06T22:17:41.184Z,97383.99
2018-03-06T22:20:07.503Z,97388.91
2018-03-06T22:22:33.830Z,97382.91
2018-03-06T22:25:00.839Z,97389.85
2018-03-06T22:27:27.112Z,97381.88
2018-03-06T22:29:53.415Z,97384.81
2018-03-06T22:32:20.435Z,97385.48
2018-03-06T22:34:46.725Z,97389.30
2018-03-06T22:37:13.012Z,97387.53
2018-03-06T22:39:39.344Z,97383.70
2018-03-06T22:42:05.637Z,97388.23
2018-03-06T22:44:31.887Z,97389.73
2018-03-06T22:46:58.204Z,97392.26
2018-03-06T22:49:24.443Z,97388.72
2018-03-06T22:51:50.733Z,97391.16
2018-03-06T22:54:16.981Z,97391.77
2018-03-06T22:56:43.265Z,97398.31
2018-03-06T22:59:10.233Z,97391.62
2018-03-06T23:01:36.489Z,97393.52
2018-03-06T23:04:02.737Z,97398.56
2018-03-06T23:06:29.041Z,97393.53
2018-03-06T23:08:55.303Z,97403.34
2018-03-06T23:11:21.602Z,97397.81
2018-03-06T23:13:47.868Z,97391.65
2018-03-06T23:16:14.106Z,97389.98
2018-03-06T23:18:40.336Z,97388.95
2018-03-06T23:21:07.332Z,97389.09
2018-03-06T23:23:33.601Z,97393.35
2018-03-06T23:25:59.872Z,97397.42
2018-03-06T23:28:26.852Z,97395.17
2018-03-06T23:30:53.087Z,97403.09
2018-03-06T23:33:19.312Z,97395.47
2018-03-06T23:35:45.581Z,97399.47
2018-03-06T23:38:11.846Z,97403.79
2018-03-06T23:40:38.094Z,97402.55
2018-03-06T23:43:04.374Z,97400.72
2018-03-06T23:45:30.635Z,97406.31
2018-03-06T23:47:56.864Z,97409.92
2018-03-06T23:50:23.156Z,97409.13
2018-03-06T23:52:49.401Z,97408.02
2018-03-06T23:55:16.361Z,97410.06
2018-03-06T23:57:43.367Z,97406.86
